sensor_id;sensor_type;location;lat;lon;timestamp;temperature;humidity
3816;DHT22;1923;48.154;11.536;2022-11-30T10:22:08;3.50;99.90
3816;DHT22;1923;48.154;11.536;2022-11-30T10:24:54;5.70;99.90
3816;DHT22;1923;48.154;11.536;2022-11-30T10:27:37;5.80;99.90
3816;DHT22;1923;48.154;11.536;2022-11-30T10:30:12;5.90;99.90
3816;DHT22;1923;48.154;11.536;2022-11-30T10:32:44;6.00;99.90
3816;DHT22;1923;48.154;11.536;2022-11-30T10:35:18;6.00;99.90
3816;DHT22;1923;48.154;11.536;2022-11-30T10:37:50;5.80;99.90
3816;DHT22;1923;48.154;11.536;2022-11-30T10:40:25;5.80;99.90
3816;DHT22;1923;48.154;11.536;2022-11-30T10:43:07;5.70;99.90
3816;DHT22;1923;48.154;11.536;2022-11-30T10:45:41;5.80;99.90
3816;DHT22;1923;48.154;11.536;2022-11-30T10:48:15;5.80;99.90
3816;DHT22;1923;48.154;11.536;2022-11-30T10:50:44;5.70;99.90
3816;DHT22;1923;48.154;11.536;2022-11-30T10:53:14;5.70;99.90
3816;DHT22;1923;48.154;11.536;2022-11-30T10:55:46;5.80;99.90
3816;DHT22;1923;48.154;11.536;2022-11-30T10:58:20;5.80;99.90
3816;DHT22;1923;48.154;11.536;2022-11-30T11:00:55;6.10;99.90
3816;DHT22;1923;48.154;11.536;2022-11-30T11:03:26;6.20;99.90
3816;DHT22;1923;48.154;11.536;2022-11-30T11:06:11;6.30;99.90
3816;DHT22;1923;48.154;11.536;2022-11-30T11:08:42;6.40;99.90
3816;DHT22;1923;48.154;11.536;2022-11-30T11:11:31;6.40;99.90
3816;DHT22;1923;48.154;11.536;2022-11-30T11:14:13;6.60;99.90
3816;DHT22;1923;48.154;11.536;2022-11-30T11:16:53;6.50;99.90
3816;DHT22;1923;48.154;11.536;2022-11-30T11:19:34;6.50;99.90
3816;DHT22;1923;48.154;11.536;2022-11-30T11:22:05;6.40;99.90
3816;DHT22;1923;48.154;11.536;2022-11-30T11:24:35;6.60;99.90
3816;DHT22;1923;48.154;11.536;2022-11-30T11:27:03;6.40;99.90
3816;DHT22;1923;48.154;11.536;2022-11-30T11:29:33;6.50;99.90
3816;DHT22;1923;48.154;11.536;2022-11-30T11:32:20;6.20;99.90
3816;DHT22;1923;48.154;11.536;2022-11-30T11:34:48;6.10;99.90
3816;DHT22;1923;48.154;11.536;2022-11-30T11:37:20;6.20;99.90
3816;DHT22;1923;48.154;11.536;2022-11-30T11:40:04;6.00;99.90
3816;DHT22;1923;48.154;11.536;2022-11-30T11:42:34;6.30;99.90
3816;DHT22;1923;48.154;11.536;2022-11-30T11:45:13;6.10;99.90
3816;DHT22;1923;48.154;11.536;2022-11-30T11:47:43;6.20;99.90
3816;DHT22;1923;48.154;11.536;2022-11-30T11:50:28;6.30;99.90
3816;DHT22;1923;48.154;11.536;2022-11-30T11:53:18;6.10;99.90
3816;DHT22;1923;48.154;11.536;2022-11-30T11:55:56;6.20;99.90
3816;DHT22;1923;48.154;11.536;2022-11-30T11:58:36;6.20;99.90
3816;DHT22;1923;48.154;11.536;2022-11-30T12:01:11;6.30;99.90
3816;DHT22;1923;48.154;11.536;2022-11-30T12:04:15;6.40;99.90
3816;DHT22;1923;48.154;11.536;2022-11-30T12:06:50;6.30;99.90
3816;DHT22;1923;48.154;11.536;2022-11-30T12:09:24;6.20;99.90
3816;DHT22;1923;48.154;11.536;2022-11-30T12:11:56;6.00;99.90
3816;DHT22;1923;48.154;11.536;2022-11-30T12:14:25;6.00;99.90
3816;DHT22;1923;48.154;11.536;2022-11-30T12:17:12;6.10;99.90
3816;DHT22;1923;48.154;11.536;2022-11-30T12:19:53;5.90;99.90
3816;DHT22;1923;48.154;11.536;2022-11-30T12:22:45;5.90;99.90
3816;DHT22;1923;48.154;11.536;2022-11-30T12:25:22;5.90;99.90
3816;DHT22;1923;48.154;11.536;2022-11-30T12:28:00;6.00;99.90
3816;DHT22;1923;48.154;11.536;2022-11-30T12:30:36;6.10;99.90
3816;DHT22;1923;48.154;11.536;2022-11-30T12:33:12;6.10;99.90
3816;DHT22;1923;48.154;11.536;2022-11-30T12:35:50;6.00;99.90
3816;DHT22;1923;48.154;11.536;2022-11-30T12:38:31;6.00;99.90
3816;DHT22;1923;48.154;11.536;2022-11-30T12:41:12;6.10;99.90
3816;DHT22;1923;48.154;11.536;2022-11-30T12:43:51;6.10;99.90
3816;DHT22;1923;48.154;11.536;2022-11-30T12:46:24;6.10;99.90
3816;DHT22;1923;48.154;11.536;2022-11-30T12:49:08;6.00;99.90
3816;DHT22;1923;48.154;11.536;2022-11-30T12:51:45;5.80;99.90
3816;DHT22;1923;48.154;11.536;2022-11-30T12:54:21;5.70;99.90
3816;DHT22;1923;48.154;11.536;2022-11-30T12:56:55;5.90;99.90
3816;DHT22;1923;48.154;11.536;2022-11-30T12:59:32;5.80;99.90
3816;DHT22;1923;48.154;11.536;2022-11-30T13:02:19;5.70;99.90
3816;DHT22;1923;48.154;11.536;2022-11-30T13:04:58;5.40;99.90
3816;DHT22;1923;48.154;11.536;2022-11-30T13:07:35;5.50;99.90
3816;DHT22;1923;48.154;11.536;2022-11-30T13:10:15;5.40;99.90
3816;DHT22;1923;48.154;11.536;2022-11-30T13:12:49;5.20;99.90
3816;DHT22;1923;48.154;11.536;2022-11-30T13:15:21;5.30;99.90
3816;DHT22;1923;48.154;11.536;2022-11-30T13:17:51;5.30;99.90
3816;DHT22;1923;48.154;11.536;2022-11-30T13:20:22;5.40;99.90
3816;DHT22;1923;48.154;11.536;2022-11-30T13:22:55;5.50;99.90
3816;DHT22;1923;48.154;11.536;2022-11-30T13:25:29;5.60;99.90
3816;DHT22;1923;48.154;11.536;2022-11-30T13:28:26;5.70;99.90
3816;DHT22;1923;48.154;11.536;2022-11-30T13:31:04;5.80;99.90
3816;DHT22;1923;48.154;11.536;2022-11-30T13:33:37;6.00;99.90
3816;DHT22;1923;48.154;11.536;2022-11-30T13:36:20;6.10;99.90
3816;DHT22;1923;48.154;11.536;2022-11-30T13:44:59;6.10;99.90
3816;DHT22;1923;48.154;11.536;2022-11-30T13:47:30;6.10;99.90
3816;DHT22;1923;48.154;11.536;2022-11-30T13:50:04;6.20;99.90
3816;DHT22;1923;48.154;11.536;2022-11-30T13:53:05;6.10;99.90
3816;DHT22;1923;48.154;11.536;2022-11-30T13:55:55;6.20;99.90
3816;DHT22;1923;48.154;11.536;2022-11-30T13:58:25;6.30;99.90
3816;DHT22;1923;48.154;11.536;2022-11-30T14:04:26;6.20;99.90
3816;DHT22;1923;48.154;11.536;2022-11-30T14:06:56;6.10;99.90
3816;DHT22;1923;48.154;11.536;2022-11-30T14:12:57;5.70;99.90
3816;DHT22;1923;48.154;11.536;2022-11-30T14:18:36;5.60;99.90
3816;DHT22;1923;48.154;11.536;2022-11-30T14:24:02;5.60;99.90
3816;DHT22;1923;48.154;11.536;2022-11-30T14:26:35;5.60;99.90
3816;DHT22;1923;48.154;11.536;2022-11-30T14:29:12;5.70;99.90
3816;DHT22;1923;48.154;11.536;2022-11-30T14:31:50;5.70;99.90
3816;DHT22;1923;48.154;11.536;2022-11-30T14:34:22;5.70;99.90
3816;DHT22;1923;48.154;11.536;2022-11-30T14:36:55;5.60;99.90
3816;DHT22;1923;48.154;11.536;2022-11-30T14:39:31;5.60;99.90
3816;DHT22;1923;48.154;11.536;2022-11-30T14:42:01;5.50;99.90
3816;DHT22;1923;48.154;11.536;2022-11-30T14:44:33;5.50;99.90
3816;DHT22;1923;48.154;11.536;2022-11-30T14:47:12;5.50;99.90
3816;DHT22;1923;48.154;11.536;2022-11-30T14:49:44;5.30;99.90
3816;DHT22;1923;48.154;11.536;2022-11-30T14:52:23;5.20;99.90
3816;DHT22;1923;48.154;11.536;2022-11-30T14:55:13;5.30;99.90
3816;DHT22;1923;48.154;11.536;2022-11-30T14:57:45;5.20;99.90
3816;DHT22;1923;48.154;11.536;2022-11-30T15:00:17;5.20;99.90
3816;DHT22;1923;48.154;11.536;2022-11-30T15:02:47;5.00;99.90
3816;DHT22;1923;48.154;11.536;2022-11-30T15:05:19;5.00;99.90
3816;DHT22;1923;48.154;11.536;2022-11-30T15:07:49;5.10;99.90
3816;DHT22;1923;48.154;11.536;2022-11-30T15:10:23;5.00;99.90
3816;DHT22;1923;48.154;11.536;2022-11-30T15:12:56;5.00;99.90
3816;DHT22;1923;48.154;11.536;2022-11-30T15:15:25;5.10;99.90
3816;DHT22;1923;48.154;11.536;2022-11-30T15:17:55;5.00;99.90
3816;DHT22;1923;48.154;11.536;2022-11-30T15:20:27;5.00;99.90
3816;DHT22;1923;48.154;11.536;2022-11-30T15:22:58;5.00;99.90
3816;DHT22;1923;48.154;11.536;2022-11-30T15:25:33;4.90;99.90
3816;DHT22;1923;48.154;11.536;2022-11-30T15:28:04;4.90;99.90
3816;DHT22;1923;48.154;11.536;2022-11-30T15:30:35;4.70;99.90
3816;DHT22;1923;48.154;11.536;2022-11-30T15:33:05;4.50;99.90
3816;DHT22;1923;48.154;11.536;2022-11-30T15:35:33;4.70;99.90
3816;DHT22;1923;48.154;11.536;2022-11-30T15:38:24;4.60;99.90
3816;DHT22;1923;48.154;11.536;2022-11-30T15:40:59;4.30;99.90
3816;DHT22;1923;48.154;11.536;2022-11-30T15:43:34;4.10;99.90
3816;DHT22;1923;48.154;11.536;2022-11-30T15:46:04;4.10;99.90
3816;DHT22;1923;48.154;11.536;2022-11-30T15:48:35;4.20;99.90
3816;DHT22;1923;48.154;11.536;2022-11-30T15:51:05;4.10;99.90
3816;DHT22;1923;48.154;11.536;2022-11-30T15:53:47;3.90;99.90
3816;DHT22;1923;48.154;11.536;2022-11-30T15:56:22;3.90;99.90
3816;DHT22;1923;48.154;11.536;2022-11-30T15:59:00;3.90;99.90
3816;DHT22;1923;48.154;11.536;2022-11-30T16:01:28;3.90;99.90
3816;DHT22;1923;48.154;11.536;2022-11-30T16:04:05;4.00;99.90
3816;DHT22;1923;48.154;11.536;2022-11-30T16:06:35;3.90;99.90
3816;DHT22;1923;48.154;11.536;2022-11-30T16:09:17;4.00;99.90
3816;DHT22;1923;48.154;11.536;2022-11-30T16:11:47;4.10;99.90
3816;DHT22;1923;48.154;11.536;2022-11-30T16:14:16;4.00;99.90
3816;DHT22;1923;48.154;11.536;2022-11-30T16:16:44;4.00;99.90
3816;DHT22;1923;48.154;11.536;2022-11-30T16:19:13;4.00;99.90
3816;DHT22;1923;48.154;11.536;2022-11-30T16:21:41;4.00;99.90
3816;DHT22;1923;48.154;11.536;2022-11-30T16:24:13;4.00;99.90
3816;DHT22;1923;48.154;11.536;2022-11-30T16:26:41;3.80;99.90
3816;DHT22;1923;48.154;11.536;2022-11-30T16:29:18;3.70;99.90
3816;DHT22;1923;48.154;11.536;2022-11-30T16:31:46;3.70;99.90
3816;DHT22;1923;48.154;11.536;2022-11-30T16:34:14;3.70;99.90
3816;DHT22;1923;48.154;11.536;2022-11-30T16:36:42;3.70;99.90
3816;DHT22;1923;48.154;11.536;2022-11-30T16:39:12;3.70;99.90
3816;DHT22;1923;48.154;11.536;2022-11-30T16:41:40;3.80;99.90
3816;DHT22;1923;48.154;11.536;2022-11-30T16:44:11;3.90;99.90
3816;DHT22;1923;48.154;11.536;2022-11-30T16:46:40;4.00;99.90
3816;DHT22;1923;48.154;11.536;2022-11-30T16:49:08;4.00;99.90
3816;DHT22;1923;48.154;11.536;2022-11-30T16:51:36;4.00;99.90
3816;DHT22;1923;48.154;11.536;2022-11-30T16:54:09;4.00;99.90
3816;DHT22;1923;48.154;11.536;2022-11-30T16:56:39;3.80;99.90
3816;DHT22;1923;48.154;11.536;2022-11-30T16:59:08;3.70;99.90
3816;DHT22;1923;48.154;11.536;2022-11-30T17:01:44;3.60;99.90
3816;DHT22;1923;48.154;11.536;2022-11-30T17:04:17;3.50;99.90
3816;DHT22;1923;48.154;11.536;2022-11-30T17:06:45;3.60;99.90
3816;DHT22;1923;48.154;11.536;2022-11-30T17:09:19;3.40;99.90
3816;DHT22;1923;48.154;11.536;2022-11-30T17:11:49;3.50;99.90
3816;DHT22;1923;48.154;11.536;2022-11-30T17:14:18;3.60;99.90
3816;DHT22;1923;48.154;11.536;2022-11-30T17:16:47;3.50;99.90
3816;DHT22;1923;48.154;11.536;2022-11-30T17:19:15;3.50;99.90
3816;DHT22;1923;48.154;11.536;2022-11-30T17:21:44;3.50;99.90
3816;DHT22;1923;48.154;11.536;2022-11-30T17:24:14;3.60;99.90
3816;DHT22;1923;48.154;11.536;2022-11-30T17:26:42;3.60;99.90
3816;DHT22;1923;48.154;11.536;2022-11-30T17:29:11;3.50;99.90
3816;DHT22;1923;48.154;11.536;2022-11-30T17:31:39;3.40;99.90
3816;DHT22;1923;48.154;11.536;2022-11-30T17:34:08;3.50;99.90
3816;DHT22;1923;48.154;11.536;2022-11-30T17:36:36;3.60;99.90
3816;DHT22;1923;48.154;11.536;2022-11-30T17:39:04;3.70;99.90
3816;DHT22;1923;48.154;11.536;2022-11-30T17:41:33;3.70;99.90
3816;DHT22;1923;48.154;11.536;2022-11-30T17:44:01;3.80;99.90
3816;DHT22;1923;48.154;11.536;2022-11-30T17:46:31;3.50;99.90
3816;DHT22;1923;48.154;11.536;2022-11-30T17:48:59;3.60;99.90
3816;DHT22;1923;48.154;11.536;2022-11-30T17:51:28;3.60;99.90
3816;DHT22;1923;48.154;11.536;2022-11-30T17:53:56;3.60;99.90
3816;DHT22;1923;48.154;11.536;2022-11-30T17:56:24;3.60;99.90
3816;DHT22;1923;48.154;11.536;2022-11-30T17:58:52;3.70;99.90
3816;DHT22;1923;48.154;11.536;2022-11-30T18:01:23;3.70;99.90
3816;DHT22;1923;48.154;11.536;2022-11-30T18:03:57;3.50;99.90
3816;DHT22;1923;48.154;11.536;2022-11-30T18:07:09;3.70;99.90
3816;DHT22;1923;48.154;11.536;2022-11-30T18:09:37;3.60;99.90
3816;DHT22;1923;48.154;11.536;2022-11-30T18:12:08;3.60;99.90
3816;DHT22;1923;48.154;11.536;2022-11-30T18:14:37;3.70;99.90
3816;DHT22;1923;48.154;11.536;2022-11-30T18:17:06;3.70;99.90
3816;DHT22;1923;48.154;11.536;2022-11-30T18:19:35;3.60;99.90
3816;DHT22;1923;48.154;11.536;2022-11-30T18:22:03;3.40;99.90
3816;DHT22;1923;48.154;11.536;2022-11-30T18:24:31;3.50;99.90
3816;DHT22;1923;48.154;11.536;2022-11-30T18:26:59;3.50;99.90
3816;DHT22;1923;48.154;11.536;2022-11-30T18:29:27;3.40;99.90
3816;DHT22;1923;48.154;11.536;2022-11-30T18:31:55;3.40;99.90
3816;DHT22;1923;48.154;11.536;2022-11-30T18:34:24;3.60;99.90
3816;DHT22;1923;48.154;11.536;2022-11-30T18:36:53;3.50;99.90
3816;DHT22;1923;48.154;11.536;2022-11-30T18:39:21;3.50;99.90
3816;DHT22;1923;48.154;11.536;2022-11-30T18:41:49;3.60;99.90
3816;DHT22;1923;48.154;11.536;2022-11-30T18:44:17;3.60;99.90
3816;DHT22;1923;48.154;11.536;2022-11-30T18:46:45;3.70;99.90
3816;DHT22;1923;48.154;11.536;2022-11-30T18:49:13;3.70;99.90
3816;DHT22;1923;48.154;11.536;2022-11-30T18:51:42;3.60;99.90
3816;DHT22;1923;48.154;11.536;2022-11-30T18:54:11;3.70;99.90
3816;DHT22;1923;48.154;11.536;2022-11-30T18:56:39;3.60;99.90
3816;DHT22;1923;48.154;11.536;2022-11-30T18:59:11;3.70;99.90
3816;DHT22;1923;48.154;11.536;2022-11-30T19:01:40;3.70;99.90
3816;DHT22;1923;48.154;11.536;2022-11-30T19:04:09;3.60;99.90
3816;DHT22;1923;48.154;11.536;2022-11-30T19:06:39;3.60;99.90
3816;DHT22;1923;48.154;11.536;2022-11-30T19:09:09;3.70;99.90
3816;DHT22;1923;48.154;11.536;2022-11-30T19:11:39;3.60;99.90
3816;DHT22;1923;48.154;11.536;2022-11-30T19:14:11;3.60;99.90
3816;DHT22;1923;48.154;11.536;2022-11-30T19:16:40;3.60;99.90
3816;DHT22;1923;48.154;11.536;2022-11-30T19:19:11;3.60;99.90
3816;DHT22;1923;48.154;11.536;2022-11-30T19:21:42;3.50;99.90
3816;DHT22;1923;48.154;11.536;2022-11-30T19:24:13;3.50;99.90
3816;DHT22;1923;48.154;11.536;2022-11-30T19:26:42;3.60;99.90
3816;DHT22;1923;48.154;11.536;2022-11-30T19:29:10;3.70;99.90
3816;DHT22;1923;48.154;11.536;2022-11-30T19:31:39;3.60;99.90
3816;DHT22;1923;48.154;11.536;2022-11-30T19:34:06;3.60;99.90
3816;DHT22;1923;48.154;11.536;2022-11-30T19:36:39;3.50;99.90
3816;DHT22;1923;48.154;11.536;2022-11-30T19:39:09;3.60;99.90
3816;DHT22;1923;48.154;11.536;2022-11-30T19:41:37;3.50;99.90
3816;DHT22;1923;48.154;11.536;2022-11-30T19:44:11;3.50;99.90
3816;DHT22;1923;48.154;11.536;2022-11-30T19:46:40;3.60;99.90
3816;DHT22;1923;48.154;11.536;2022-11-30T19:49:09;3.50;99.90
3816;DHT22;1923;48.154;11.536;2022-11-30T19:51:37;3.50;99.90
3816;DHT22;1923;48.154;11.536;2022-11-30T19:54:05;3.50;99.90
3816;DHT22;1923;48.154;11.536;2022-11-30T19:56:33;3.50;99.90
3816;DHT22;1923;48.154;11.536;2022-11-30T19:59:02;3.40;99.90
3816;DHT22;1923;48.154;11.536;2022-11-30T20:01:33;3.30;99.90
3816;DHT22;1923;48.154;11.536;2022-11-30T20:04:02;3.40;99.90
3816;DHT22;1923;48.154;11.536;2022-11-30T20:06:33;3.40;99.90
3816;DHT22;1923;48.154;11.536;2022-11-30T20:09:01;3.40;99.90
3816;DHT22;1923;48.154;11.536;2022-11-30T20:11:29;3.50;99.90
3816;DHT22;1923;48.154;11.536;2022-11-30T20:13:58;3.30;99.90
3816;DHT22;1923;48.154;11.536;2022-11-30T20:16:26;3.40;99.90
3816;DHT22;1923;48.154;11.536;2022-11-30T20:18:58;3.50;99.90
3816;DHT22;1923;48.154;11.536;2022-11-30T20:21:28;3.60;99.90
3816;DHT22;1923;48.154;11.536;2022-11-30T20:23:58;3.70;99.90
3816;DHT22;1923;48.154;11.536;2022-11-30T20:26:28;3.50;99.90
3816;DHT22;1923;48.154;11.536;2022-11-30T20:28:59;3.60;99.90
3816;DHT22;1923;48.154;11.536;2022-11-30T20:31:28;3.80;99.90
3816;DHT22;1923;48.154;11.536;2022-11-30T20:33:58;3.80;99.90
3816;DHT22;1923;48.154;11.536;2022-11-30T20:36:27;3.80;99.90
3816;DHT22;1923;48.154;11.536;2022-11-30T20:38:55;3.90;99.90
3816;DHT22;1923;48.154;11.536;2022-11-30T20:41:24;3.90;99.90
3816;DHT22;1923;48.154;11.536;2022-11-30T20:43:53;3.90;99.90
3816;DHT22;1923;48.154;11.536;2022-11-30T20:46:23;3.90;99.90
3816;DHT22;1923;48.154;11.536;2022-11-30T20:48:52;4.10;99.90
3816;DHT22;1923;48.154;11.536;2022-11-30T20:51:23;4.00;99.90
3816;DHT22;1923;48.154;11.536;2022-11-30T20:54:00;4.10;99.90
3816;DHT22;1923;48.154;11.536;2022-11-30T20:56:29;4.00;99.90
3816;DHT22;1923;48.154;11.536;2022-11-30T20:59:00;4.00;99.90
3816;DHT22;1923;48.154;11.536;2022-11-30T21:01:28;3.90;99.90
3816;DHT22;1923;48.154;11.536;2022-11-30T21:03:57;3.90;99.90
3816;DHT22;1923;48.154;11.536;2022-11-30T21:06:28;3.80;99.90
3816;DHT22;1923;48.154;11.536;2022-11-30T21:08:57;3.90;99.90
3816;DHT22;1923;48.154;11.536;2022-11-30T21:11:27;3.90;99.90
3816;DHT22;1923;48.154;11.536;2022-11-30T21:13:56;4.00;99.90
3816;DHT22;1923;48.154;11.536;2022-11-30T21:16:26;4.00;99.90
3816;DHT22;1923;48.154;11.536;2022-11-30T21:18:56;3.90;99.90
3816;DHT22;1923;48.154;11.536;2022-11-30T21:21:29;4.10;99.90
3816;DHT22;1923;48.154;11.536;2022-11-30T21:23:58;4.10;99.90
3816;DHT22;1923;48.154;11.536;2022-11-30T21:26:28;4.20;99.90
3816;DHT22;1923;48.154;11.536;2022-11-30T21:28:59;4.20;99.90
3816;DHT22;1923;48.154;11.536;2022-11-30T21:31:28;3.90;99.90
3816;DHT22;1923;48.154;11.536;2022-11-30T21:33:56;3.90;99.90
3816;DHT22;1923;48.154;11.536;2022-11-30T21:36:25;3.80;99.90
3816;DHT22;1923;48.154;11.536;2022-11-30T21:38:56;3.90;99.90
3816;DHT22;1923;48.154;11.536;2022-11-30T21:41:32;3.90;99.90
3816;DHT22;1923;48.154;11.536;2022-11-30T21:44:00;3.90;99.90
3816;DHT22;1923;48.154;11.536;2022-11-30T21:46:28;3.90;99.90
3816;DHT22;1923;48.154;11.536;2022-11-30T21:48:56;3.90;99.90
3816;DHT22;1923;48.154;11.536;2022-11-30T21:51:26;3.90;99.90
3816;DHT22;1923;48.154;11.536;2022-11-30T21:53:58;3.90;99.90
3816;DHT22;1923;48.154;11.536;2022-11-30T21:56:27;3.60;99.90
3816;DHT22;1923;48.154;11.536;2022-11-30T21:58:56;3.80;99.90
3816;DHT22;1923;48.154;11.536;2022-11-30T22:01:26;3.80;99.90
3816;DHT22;1923;48.154;11.536;2022-11-30T22:03:54;3.80;99.90
3816;DHT22;1923;48.154;11.536;2022-11-30T22:06:24;3.90;99.90
3816;DHT22;1923;48.154;11.536;2022-11-30T22:08:56;3.80;99.90
3816;DHT22;1923;48.154;11.536;2022-11-30T22:11:29;3.90;99.90
3816;DHT22;1923;48.154;11.536;2022-11-30T22:13:57;4.00;99.90
3816;DHT22;1923;48.154;11.536;2022-11-30T22:16:26;4.00;99.90
3816;DHT22;1923;48.154;11.536;2022-11-30T22:19:02;4.00;99.90
3816;DHT22;1923;48.154;11.536;2022-11-30T22:21:31;4.10;99.90
3816;DHT22;1923;48.154;11.536;2022-11-30T22:24:02;4.10;99.90
3816;DHT22;1923;48.154;11.536;2022-11-30T22:26:32;4.00;99.90
3816;DHT22;1923;48.154;11.536;2022-11-30T22:29:03;4.10;99.90
3816;DHT22;1923;48.154;11.536;2022-11-30T22:31:33;4.20;99.90
3816;DHT22;1923;48.154;11.536;2022-11-30T22:34:02;4.10;99.90
3816;DHT22;1923;48.154;11.536;2022-11-30T22:36:31;4.10;99.90
3816;DHT22;1923;48.154;11.536;2022-11-30T22:39:05;4.00;99.90
